Time;durP1;ratioP1;P1;durP2;ratioP2;P2;SDS_P1;SDS_P2;PMS_P1;PMS_P2;Temp;Humidity;BMP_temperature;BMP_pressure;BME280_temperature;BME280_humidity;BME280_pressure;Samples;Min_cycle;Max_cycle;Signal;HPM_P1;HPM_P2
2021/01/01 00:01:13;;;;;;;55.72;32.78;;;3.70;99.90;;;;;;5076042;28;20025;-82
2021/01/01 00:03:40;;;;;;;38.60;21.55;;;3.70;99.90;;;;;;5075898;28;20028;-82
2021/01/01 00:06:10;;;;;;;36.33;22.95;;;3.70;99.90;;;;;;5074811;28;20053;-83
2021/01/01 00:08:37;;;;;;;33.15;20.42;;;3.70;99.90;;;;;;5074459;28;20385;-81
2021/01/01 00:11:03;;;;;;;26.75;16.35;;;3.70;99.90;;;;;;5075614;28;20041;-80
2021/01/01 00:13:29;;;;;;;25.95;14.90;;;3.70;99.90;;;;;;5091561;28;20028;-81
2021/01/01 00:15:55;;;;;;;21.13;13.13;;;3.70;99.90;;;;;;5075151;28;20381;-82
2021/01/01 00:18:22;;;;;;;19.10;11.93;;;3.70;99.90;;;;;;5075980;28;20044;-81
2021/01/01 00:20:48;;;;;;;27.50;17.17;;;3.70;99.90;;;;;;5076723;28;20040;-81
2021/01/01 00:23:15;;;;;;;29.80;17.63;;;3.70;99.90;;;;;;5104404;28;20032;-80
2021/01/01 00:25:42;;;;;;;24.17;15.60;;;3.80;99.90;;;;;;5082721;28;20036;-80
2021/01/01 00:28:08;;;;;;;144.52;86.22;;;3.80;99.90;;;;;;5079578;28;20036;-79
2021/01/01 00:30:35;;;;;;;42.65;28.83;;;3.70;99.90;;;;;;5093523;28;20035;-79
2021/01/01 00:33:01;;;;;;;26.05;14.02;;;3.70;99.90;;;;;;5076665;28;20068;-80
2021/01/01 00:35:27;;;;;;;21.58;12.30;;;3.70;99.90;;;;;;5084528;28;20476;-80
2021/01/01 00:37:53;;;;;;;26.10;15.82;;;3.70;99.90;;;;;;5090135;28;20381;-80
2021/01/01 00:40:20;;;;;;;28.83;18.60;;;3.70;99.90;;;;;;5075449;28;20373;-80
2021/01/01 00:42:46;;;;;;;30.92;18.95;;;3.70;99.90;;;;;;5074420;28;20036;-80
2021/01/01 00:45:12;;;;;;;38.42;19.85;;;3.60;99.90;;;;;;5073810;28;20052;-80
2021/01/01 00:47:39;;;;;;;25.40;15.85;;;3.60;99.90;;;;;;5075487;28;20029;-80
2021/01/01 00:50:06;;;;;;;24.25;15.73;;;3.50;99.90;;;;;;5074169;28;20346;-80
2021/01/01 00:52:32;;;;;;;27.52;16.30;;;3.40;99.90;;;;;;5094706;28;20043;-81
2021/01/01 00:54:58;;;;;;;30.55;18.05;;;3.40;99.90;;;;;;5081303;28;20032;-80
2021/01/01 00:57:24;;;;;;;23.80;15.55;;;3.30;99.90;;;;;;5089103;28;20029;-79
2021/01/01 00:59:51;;;;;;;25.55;15.63;;;3.30;99.90;;;;;;5074505;28;20041;-80
2021/01/01 01:02:17;;;;;;;26.40;16.60;;;3.20;99.90;;;;;;5075145;28;20040;-79
2021/01/01 01:04:43;;;;;;;27.25;16.15;;;3.10;99.90;;;;;;5075177;28;20036;-80
2021/01/01 01:07:10;;;;;;;29.90;17.05;;;3.10;99.90;;;;;;5076101;28;20039;-80
2021/01/01 01:09:36;;;;;;;30.25;17.55;;;3.00;99.90;;;;;;5076645;28;20040;-79
2021/01/01 01:12:02;;;;;;;27.17;16.73;;;3.00;99.90;;;;;;5084302;28;20047;-81
2021/01/01 01:14:28;;;;;;;31.00;17.65;;;3.00;99.90;;;;;;5083904;28;20040;-79
2021/01/01 01:16:55;;;;;;;28.85;17.10;;;3.00;99.90;;;;;;5089037;28;20043;-80
2021/01/01 01:19:21;;;;;;;28.27;16.48;;;3.00;99.90;;;;;;5079533;28;20024;-80
2021/01/01 01:21:47;;;;;;;30.05;17.08;;;3.10;99.90;;;;;;5085584;28;20033;-79
2021/01/01 01:24:13;;;;;;;34.10;17.35;;;3.10;99.90;;;;;;5079458;28;20021;-80
2021/01/01 01:26:39;;;;;;;30.67;18.25;;;3.10;99.90;;;;;;5086156;28;20032;-80
2021/01/01 01:29:06;;;;;;;32.83;19.08;;;3.00;99.90;;;;;;5084505;28;20024;-80
2021/01/01 01:31:32;;;;;;;29.05;17.92;;;3.10;99.90;;;;;;5068329;28;20371;-81
2021/01/01 01:33:58;;;;;;;31.83;19.25;;;3.00;99.90;;;;;;5054903;28;20029;-80
2021/01/01 01:36:24;;;;;;;30.02;18.27;;;3.00;99.90;;;;;;5062246;28;20394;-80
2021/01/01 01:38:51;;;;;;;31.88;18.63;;;3.00;99.90;;;;;;5037955;28;20490;-80
2021/01/01 01:41:17;;;;;;;32.53;18.33;;;3.00;99.90;;;;;;5055550;28;20044;-82
2021/01/01 01:43:43;;;;;;;35.30;20.40;;;3.10;99.90;;;;;;5065565;28;20029;-80
2021/01/01 01:46:09;;;;;;;31.80;20.63;;;3.00;99.90;;;;;;5054840;28;20041;-80
2021/01/01 01:48:37;;;;;;;36.58;20.77;;;3.10;99.90;;;;;;5068411;28;20025;-80
2021/01/01 01:51:05;;;;;;;30.35;19.63;;;3.00;99.90;;;;;;5054963;28;20029;-82
2021/01/01 01:53:36;;;;;;;37.08;20.95;;;3.00;99.90;;;;;;5036940;28;20386;-81
2021/01/01 01:56:02;;;;;;;40.33;22.02;;;2.90;99.90;;;;;;5062917;28;20040;-82
2021/01/01 01:58:29;;;;;;;43.85;23.45;;;2.90;99.90;;;;;;5036791;28;20040;-81
2021/01/01 02:00:58;;;;;;;39.72;21.58;;;3.00;99.90;;;;;;5068303;28;20331;-82
2021/01/01 02:03:29;;;;;;;42.08;23.98;;;3.00;99.90;;;;;;5056363;28;20040;-81
2021/01/01 02:05:56;;;;;;;43.45;23.88;;;3.00;99.90;;;;;;5036682;28;20048;-82
2021/01/01 02:08:22;;;;;;;40.60;22.83;;;3.00;99.90;;;;;;5072637;28;20043;-81
2021/01/01 02:10:52;;;;;;;40.33;23.38;;;3.00;99.90;;;;;;5055119;28;20474;-82
2021/01/01 02:13:19;;;;;;;37.53;20.70;;;3.00;99.90;;;;;;5033725;28;20037;-82
2021/01/01 02:15:45;;;;;;;39.70;22.45;;;3.00;99.90;;;;;;5072086;28;20189;-81
2021/01/01 02:18:12;;;;;;;34.58;21.63;;;3.00;99.90;;;;;;5060400;28;20386;-81
2021/01/01 02:20:38;;;;;;;36.65;21.15;;;3.00;99.90;;;;;;5053362;28;20029;-81
2021/01/01 02:23:04;;;;;;;35.25;20.30;;;3.00;99.90;;;;;;5053484;28;20032;-81
2021/01/01 02:25:31;;;;;;;36.25;20.00;;;2.90;99.90;;;;;;5052077;28;20041;-82
2021/01/01 02:27:58;;;;;;;35.55;19.60;;;3.00;99.90;;;;;;5054512;28;20029;-81
2021/01/01 02:30:24;;;;;;;32.78;19.58;;;3.00;99.90;;;;;;5054788;28;20040;-81
2021/01/01 02:32:50;;;;;;;29.17;17.17;;;3.00;99.90;;;;;;5069703;28;20053;-82
2021/01/01 02:35:17;;;;;;;28.70;18.77;;;3.00;99.90;;;;;;5038173;28;20450;-82
2021/01/01 02:37:44;;;;;;;35.78;19.30;;;3.00;99.90;;;;;;5039627;28;20048;-82
2021/01/01 02:40:10;;;;;;;32.20;18.30;;;3.10;99.90;;;;;;5053607;28;20039;-81
2021/01/01 02:42:37;;;;;;;32.13;18.17;;;3.10;99.90;;;;;;5046681;28;20044;-82
2021/01/01 02:45:03;;;;;;;30.90;17.10;;;3.10;99.90;;;;;;5053553;28;20394;-82
2021/01/01 02:47:30;;;;;;;41.50;21.75;;;3.20;99.90;;;;;;5035391;28;20037;-81
2021/01/01 02:49:56;;;;;;;42.47;23.90;;;3.20;99.90;;;;;;5050015;28;20040;-82
2021/01/01 02:52:23;;;;;;;50.97;28.05;;;3.20;99.90;;;;;;5052566;28;20025;-81
2021/01/01 02:54:49;;;;;;;57.40;31.40;;;3.10;99.90;;;;;;5052707;28;20037;-82
2021/01/01 02:57:15;;;;;;;76.70;42.40;;;3.20;99.90;;;;;;5053394;28;20029;-81
2021/01/01 02:59:41;;;;;;;45.40;26.20;;;3.10;99.90;;;;;;5034390;28;20482;-82
2021/01/01 03:02:08;;;;;;;46.35;25.60;;;3.10;99.90;;;;;;5044150;28;20045;-81
2021/01/01 03:04:34;;;;;;;98.90;47.88;;;3.10;99.90;;;;;;5038901;28;20041;-82
2021/01/01 03:07:00;;;;;;;125.97;62.83;;;3.10;99.90;;;;;;5071617;28;20035;-81
2021/01/01 03:09:26;;;;;;;69.57;37.03;;;3.10;99.90;;;;;;5058441;28;20033;-81
2021/01/01 03:11:53;;;;;;;171.35;73.35;;;3.10;99.90;;;;;;5063599;28;20028;-81
2021/01/01 03:14:19;;;;;;;113.13;57.60;;;3.10;99.90;;;;;;5034325;28;20474;-82
2021/01/01 03:16:45;;;;;;;68.97;34.65;;;3.10;99.90;;;;;;5036453;28;20055;-81
2021/01/01 03:19:11;;;;;;;80.28;39.55;;;3.10;99.90;;;;;;5017435;28;20056;-81
2021/01/01 03:21:38;;;;;;;78.72;39.95;;;3.10;99.90;;;;;;5038500;28;20382;-81
2021/01/01 03:24:04;;;;;;;223.45;101.45;;;3.10;99.90;;;;;;5039631;28;20036;-81
2021/01/01 03:26:30;;;;;;;140.43;68.18;;;3.10;99.90;;;;;;5075276;28;20036;-81
2021/01/01 03:28:57;;;;;;;65.78;34.15;;;3.10;99.90;;;;;;5060181;28;20037;-81
2021/01/01 03:31:23;;;;;;;96.22;45.35;;;3.10;99.90;;;;;;5056977;28;20041;-81
2021/01/01 03:33:49;;;;;;;137.43;65.40;;;3.10;99.90;;;;;;5056412;28;20476;-81
2021/01/01 03:36:15;;;;;;;71.43;35.45;;;3.10;99.90;;;;;;5057130;28;20040;-81
2021/01/01 03:38:42;;;;;;;70.00;35.67;;;3.10;99.90;;;;;;5046532;28;20044;-82
2021/01/01 03:41:08;;;;;;;88.05;45.40;;;3.10;99.90;;;;;;5038313;28;20111;-82
2021/01/01 03:43:34;;;;;;;144.20;69.40;;;3.10;99.90;;;;;;5057547;28;20465;-81
2021/01/01 03:46:01;;;;;;;98.93;48.30;;;3.10;99.90;;;;;;5039111;28;20041;-82
2021/01/01 03:48:27;;;;;;;50.50;23.77;;;3.10;99.90;;;;;;5038580;28;20045;-82
2021/01/01 03:50:54;;;;;;;289.35;115.63;;;3.10;99.90;;;;;;5056846;28;20036;-82
2021/01/01 03:53:20;;;;;;;168.77;75.60;;;3.00;99.90;;;;;;5056163;28;20363;-82
2021/01/01 03:55:46;;;;;;;101.93;44.30;;;3.10;99.90;;;;;;5037565;28;20048;-82
2021/01/01 03:58:12;;;;;;;47.47;24.73;;;3.10;99.90;;;;;;5038652;28;20032;-81
2021/01/01 04:00:38;;;;;;;76.57;36.58;;;3.10;99.90;;;;;;5055023;28;20036;-82
2021/01/01 04:03:05;;;;;;;30.60;14.93;;;3.00;99.90;;;;;;5056605;28;20044;-82
2021/01/01 04:05:31;;;;;;;70.18;34.65;;;3.00;99.90;;;;;;5040376;28;20516;-81
2021/01/01 04:07:57;;;;;;;37.03;19.73;;;3.00;99.90;;;;;;5038231;28;20048;-82
2021/01/01 04:10:23;;;;;;;28.40;12.63;;;3.00;99.90;;;;;;5038251;28;20052;-82
2021/01/01 04:12:50;;;;;;;42.83;20.45;;;3.00;99.90;;;;;;5055859;28;20025;-81
2021/01/01 04:15:16;;;;;;;18.48;11.07;;;3.00;99.90;;;;;;5055465;28;20033;-81
2021/01/01 04:17:42;;;;;;;17.08;9.50;;;3.00;99.90;;;;;;5055517;28;20411;-81
2021/01/01 04:20:09;;;;;;;14.75;8.55;;;3.00;99.90;;;;;;5055510;28;20055;-81
2021/01/01 04:22:35;;;;;;;13.38;7.80;;;3.00;99.90;;;;;;5038214;28;20390;-81
2021/01/01 04:25:02;;;;;;;20.92;10.50;;;3.00;99.90;;;;;;5054625;28;20032;-82
2021/01/01 04:27:28;;;;;;;17.30;8.95;;;3.00;99.90;;;;;;5021025;28;20052;-81
2021/01/01 04:29:54;;;;;;;14.95;8.57;;;3.00;99.90;;;;;;5055563;28;20071;-82
2021/01/01 04:32:20;;;;;;;17.30;8.52;;;2.90;99.90;;;;;;5055624;28;20048;-81
2021/01/01 04:34:47;;;;;;;15.40;8.75;;;2.90;99.90;;;;;;5053182;28;20036;-81
2021/01/01 04:37:13;;;;;;;20.20;9.60;;;2.90;99.90;;;;;;5045110;28;20048;-81
2021/01/01 04:39:39;;;;;;;15.80;9.25;;;2.90;99.90;;;;;;5073422;28;20028;-81
2021/01/01 04:42:06;;;;;;;15.18;8.13;;;2.90;99.90;;;;;;5065188;28;20036;-81
2021/01/01 04:44:32;;;;;;;17.98;10.02;;;2.90;99.90;;;;;;5055347;28;20048;-81
2021/01/01 04:47:04;;;;;;;15.35;8.93;;;2.80;99.90;;;;;;5066542;28;20036;-82
2021/01/01 04:49:32;;;;;;;17.00;9.35;;;2.80;99.90;;;;;;5057217;28;20033;-81
2021/01/01 04:52:02;;;;;;;19.88;9.95;;;2.70;99.90;;;;;;5070568;28;20043;-81
2021/01/01 04:54:32;;;;;;;21.38;10.85;;;2.60;99.90;;;;;;5055559;28;20025;-81
2021/01/01 04:56:58;;;;;;;18.35;9.45;;;2.50;99.90;;;;;;5058413;28;20036;-81
2021/01/01 04:59:24;;;;;;;22.33;10.68;;;2.40;99.90;;;;;;5069348;28;20048;-81
2021/01/01 05:01:51;;;;;;;17.48;9.23;;;2.30;99.90;;;;;;5057831;28;20041;-81
2021/01/01 05:04:17;;;;;;;22.38;10.95;;;2.20;99.90;;;;;;5056364;28;20029;-81
2021/01/01 05:06:43;;;;;;;20.85;11.43;;;2.10;99.90;;;;;;5054414;28;20100;-81
2021/01/01 05:09:13;;;;;;;18.70;11.35;;;2.10;99.90;;;;;;5038017;28;20033;-81
2021/01/01 05:11:40;;;;;;;21.90;11.35;;;2.00;99.90;;;;;;5054613;28;20382;-81
2021/01/01 05:14:08;;;;;;;23.05;12.43;;;2.00;99.90;;;;;;5065389;28;20051;-81
2021/01/01 05:16:35;;;;;;;20.20;11.18;;;2.00;99.90;;;;;;5053185;28;20046;-81
2021/01/01 05:19:12;;;;;;;22.90;11.50;;;1.90;99.90;;;;;;5074064;28;20028;-81
2021/01/01 05:21:39;;;;;;;25.83;11.88;;;1.90;99.90;;;;;;5054107;28;20040;-81
2021/01/01 05:24:06;;;;;;;24.20;11.60;;;1.90;99.90;;;;;;5055943;28;20054;-81
2021/01/01 05:26:33;;;;;;;21.75;11.90;;;1.90;99.90;;;;;;5062791;28;20036;-81
2021/01/01 05:29:05;;;;;;;23.80;11.48;;;1.80;99.90;;;;;;5053294;28;20052;-81
2021/01/01 05:31:39;;;;;;;23.50;11.60;;;1.80;99.90;;;;;;5054338;28;20072;-81
2021/01/01 05:34:10;;;;;;;24.45;12.23;;;1.70;99.90;;;;;;5054932;28;20048;-81
2021/01/01 05:36:38;;;;;;;55.35;26.40;;;1.70;99.90;;;;;;5037509;28;20045;-81
2021/01/01 05:39:13;;;;;;;61.30;29.70;;;1.80;99.90;;;;;;5054261;28;20033;-81
2021/01/01 05:41:41;;;;;;;32.90;17.58;;;1.70;99.90;;;;;;5054057;28;20037;-80
2021/01/01 05:44:19;;;;;;;30.50;13.32;;;1.70;99.90;;;;;;5065829;28;20032;-81
2021/01/01 05:47:09;;;;;;;29.08;13.32;;;1.70;99.90;;;;;;5053820;28;20481;-81
2021/01/01 05:49:37;;;;;;;26.17;12.10;;;1.70;99.90;;;;;;5036467;28;20063;-81
2021/01/01 05:52:09;;;;;;;28.50;12.63;;;1.70;99.90;;;;;;5071868;28;20462;-81
2021/01/01 05:54:41;;;;;;;28.05;13.73;;;1.70;99.90;;;;;;5062065;28;20040;-82
2021/01/01 05:57:08;;;;;;;;;;;1.80;99.90;;;;;;5064121;28;20040;-80
2021/01/01 05:59:36;;;;;;;23.02;11.00;;;1.80;99.90;;;;;;5053169;28;19916;-81
2021/01/01 06:02:04;;;;;;;26.05;12.88;;;1.80;99.90;;;;;;5054080;28;20048;-81
2021/01/01 06:04:31;;;;;;;26.27;11.90;;;1.80;99.90;;;;;;5036083;28;20041;-80
2021/01/01 06:07:07;;;;;;;23.10;12.35;;;1.80;99.90;;;;;;5054441;28;20033;-81
2021/01/01 06:09:35;;;;;;;18.50;10.32;;;1.80;99.90;;;;;;5053796;28;20044;-80
2021/01/01 06:12:10;;;;;;;22.23;11.95;;;1.80;99.90;;;;;;5035681;28;20406;-80
2021/01/01 06:14:41;;;;;;;27.63;11.95;;;1.80;99.90;;;;;;5074489;28;20028;-81
2021/01/01 06:17:10;;;;;;;19.83;10.10;;;1.90;99.90;;;;;;5055203;28;20039;-81
2021/01/01 06:19:45;;;;;;;29.08;17.23;;;1.90;99.90;;;;;;5035791;28;20037;-80
2021/01/01 06:22:18;;;;;;;20.27;11.55;;;1.90;99.90;;;;;;5058799;28;20059;-80
2021/01/01 06:24:48;;;;;;;22.42;9.80;;;1.90;99.90;;;;;;5061437;28;20036;-80
2021/01/01 06:27:14;;;;;;;15.02;8.18;;;1.90;99.90;;;;;;5063088;28;20040;-81
2021/01/01 06:29:43;;;;;;;24.05;12.43;;;2.00;99.90;;;;;;5038013;28;20045;-81
2021/01/01 06:32:10;;;;;;;21.35;12.65;;;2.00;99.90;;;;;;5053721;28;20049;-80
2021/01/01 06:34:37;;;;;;;37.28;19.77;;;2.00;99.90;;;;;;5053494;28;20352;-80
2021/01/01 06:37:03;;;;;;;18.23;10.90;;;2.00;99.90;;;;;;5053375;28;20037;-80
2021/01/01 06:39:43;;;;;;;11.80;6.53;;;2.10;99.90;;;;;;5037278;28;20040;-80
2021/01/01 06:42:10;;;;;;;12.50;6.90;;;2.10;99.90;;;;;;5057082;28;20116;-80
2021/01/01 06:44:41;;;;;;;12.43;6.35;;;2.10;99.90;;;;;;5073646;28;20028;-80
2021/01/01 06:47:10;;;;;;;13.35;6.88;;;2.10;99.90;;;;;;5053866;28;20033;-80
2021/01/01 06:49:39;;;;;;;10.80;6.05;;;2.10;99.90;;;;;;5061221;28;20355;-80
2021/01/01 06:52:16;;;;;;;11.98;6.55;;;2.10;99.90;;;;;;5063052;28;20029;-80
2021/01/01 06:55:00;;;;;;;17.00;9.05;;;2.10;99.90;;;;;;5053033;28;20048;-80
2021/01/01 06:57:28;;;;;;;12.05;7.00;;;2.10;99.90;;;;;;5053004;28;20047;-80
2021/01/01 06:59:58;;;;;;;13.32;6.03;;;2.20;99.90;;;;;;5043047;28;20036;-80
2021/01/01 07:02:29;;;;;;;19.33;10.73;;;2.20;99.90;;;;;;5017966;28;20049;-80
2021/01/01 07:04:56;;;;;;;13.40;7.35;;;2.20;99.90;;;;;;5052855;28;20495;-79
2021/01/01 07:07:42;;;;;;;9.68;6.05;;;2.20;99.90;;;;;;5052945;28;20043;-79
2021/01/01 07:10:14;;;;;;;10.57;5.57;;;2.20;99.90;;;;;;5053297;28;20037;-79
2021/01/01 07:12:41;;;;;;;9.40;5.93;;;2.20;99.90;;;;;;5044645;28;20059;-78
2021/01/01 07:15:32;;;;;;;9.38;5.82;;;2.20;99.90;;;;;;5060551;28;20029;-78
2021/01/01 07:17:59;;;;;;;12.38;5.88;;;2.20;99.90;;;;;;5034495;28;20048;-79
2021/01/01 07:20:26;;;;;;;10.43;5.80;;;2.20;99.90;;;;;;5060171;28;20028;-79
2021/01/01 07:22:59;;;;;;;9.82;5.35;;;2.20;99.90;;;;;;5052402;28;20405;-79
2021/01/01 07:25:38;;;;;;;13.52;5.82;;;2.20;99.90;;;;;;5052805;28;20029;-78
2021/01/01 07:28:06;;;;;;;11.45;5.55;;;2.20;99.90;;;;;;5053237;28;20048;-78
2021/01/01 07:30:35;;;;;;;14.07;6.68;;;2.30;99.90;;;;;;5051966;28;20048;-79
2021/01/01 07:33:02;;;;;;;11.40;5.78;;;2.30;99.90;;;;;;5067869;28;20040;-79
2021/01/01 07:35:29;;;;;;;10.55;6.82;;;2.40;99.90;;;;;;5072349;28;20035;-79
2021/01/01 07:37:56;;;;;;;18.02;10.80;;;2.40;99.90;;;;;;5070072;28;20037;-78
2021/01/01 07:40:22;;;;;;;22.20;12.55;;;2.40;99.90;;;;;;5072439;28;20108;-78
2021/01/01 07:42:53;;;;;;;20.00;10.48;;;2.40;99.90;;;;;;5071989;28;20037;-79
2021/01/01 07:45:20;;;;;;;29.73;14.90;;;2.40;99.90;;;;;;5074029;28;20036;-78
2021/01/01 07:47:47;;;;;;;18.73;10.10;;;2.40;99.90;;;;;;5078337;28;20044;-79
2021/01/01 07:50:18;;;;;;;15.40;9.48;;;2.40;99.90;;;;;;5078260;28;20032;-78
2021/01/01 07:52:45;;;;;;;15.18;9.02;;;2.40;99.90;;;;;;5070594;28;20041;-79
2021/01/01 07:55:19;;;;;;;20.70;12.48;;;2.40;99.90;;;;;;5072442;28;20371;-78
2021/01/01 07:57:45;;;;;;;16.83;10.45;;;2.40;99.90;;;;;;5071867;28;20040;-78
2021/01/01 08:00:12;;;;;;;17.73;9.50;;;2.50;99.90;;;;;;5087392;28;20490;-79
2021/01/01 08:02:42;;;;;;;15.05;7.82;;;2.50;99.90;;;;;;5073621;28;20043;-78
2021/01/01 08:05:12;;;;;;;13.43;8.32;;;2.50;99.90;;;;;;5075934;28;20029;-78
2021/01/01 08:07:38;;;;;;;12.40;7.32;;;2.60;99.90;;;;;;5075870;28;20037;-78
2021/01/01 08:10:06;;;;;;;11.02;6.78;;;2.60;99.90;;;;;;5090774;28;20039;-78
2021/01/01 08:12:32;;;;;;;11.35;7.93;;;2.70;99.90;;;;;;5082607;28;20465;-79
2021/01/01 08:14:58;;;;;;;12.25;7.50;;;2.70;99.90;;;;;;5074817;28;20497;-79
2021/01/01 08:17:31;;;;;;;10.70;6.22;;;2.80;99.90;;;;;;5075896;28;20054;-79
2021/01/01 08:19:57;;;;;;;11.80;6.97;;;2.70;99.90;;;;;;5096373;28;20039;-79
2021/01/01 08:22:31;;;;;;;8.70;5.43;;;2.70;99.90;;;;;;5078587;28;20039;-79
2021/01/01 08:24:58;;;;;;;8.98;6.00;;;2.70;99.90;;;;;;5076008;28;20036;-79
2021/01/01 08:27:26;;;;;;;10.45;5.90;;;2.70;99.90;;;;;;5075166;28;20050;-80
2021/01/01 08:29:55;;;;;;;11.48;7.28;;;2.80;99.90;;;;;;5073838;28;20041;-79
2021/01/01 08:32:22;;;;;;;15.80;10.48;;;2.70;99.90;;;;;;5073575;28;20063;-78
2021/01/01 08:34:51;;;;;;;10.63;6.28;;;2.80;99.90;;;;;;5075144;28;20043;-79
2021/01/01 08:37:23;;;;;;;10.70;6.25;;;2.80;99.90;;;;;;5077227;28;20056;-79
2021/01/01 08:40:09;;;;;;;10.65;5.88;;;2.80;99.90;;;;;;5081510;28;20056;-79
2021/01/01 08:42:37;;;;;;;9.70;6.38;;;2.80;99.90;;;;;;5073479;28;20044;-79
2021/01/01 08:45:06;;;;;;;10.32;5.93;;;2.90;99.90;;;;;;5083812;28;20043;-80
2021/01/01 08:47:39;;;;;;;8.75;5.68;;;2.90;99.90;;;;;;5083638;28;20047;-80
2021/01/01 08:50:28;;;;;;;9.48;6.40;;;3.00;99.90;;;;;;5078095;28;20033;-80
2021/01/01 08:53:04;;;;;;;10.10;6.22;;;3.00;99.90;;;;;;5093057;28;20036;-80
2021/01/01 08:55:30;;;;;;;9.23;5.85;;;3.10;99.90;;;;;;5079454;28;20378;-77
2021/01/01 08:58:17;;;;;;;11.45;7.10;;;3.10;99.90;;;;;;5088603;28;20040;-82
2021/01/01 09:00:45;;;;;;;9.88;7.07;;;3.10;99.90;;;;;;5086683;28;20033;-82
2021/01/01 09:03:13;;;;;;;14.20;9.07;;;3.20;99.90;;;;;;5086618;28;20267;-83
2021/01/01 09:05:39;;;;;;;16.88;9.75;;;3.20;99.90;;;;;;5079565;28;20358;-82
2021/01/01 09:08:17;;;;;;;16.98;11.05;;;3.10;99.90;;;;;;5081427;28;20041;-83
2021/01/01 09:10:46;;;;;;;17.10;10.48;;;3.00;99.90;;;;;;5086313;28;20487;-82
2021/01/01 09:13:26;;;;;;;20.35;10.93;;;3.00;99.90;;;;;;5088898;28;20043;-78
2021/01/01 09:16:01;;;;;;;21.25;12.90;;;3.00;99.90;;;;;;5072358;28;20051;-79
2021/01/01 09:18:27;;;;;;;17.30;11.98;;;3.00;99.90;;;;;;5074645;28;20032;-78
2021/01/01 09:21:09;;;;;;;18.88;11.00;;;3.00;99.90;;;;;;5071866;28;20032;-78
2021/01/01 09:23:36;;;;;;;18.77;11.43;;;3.00;99.90;;;;;;5078654;28;20032;-77
2021/01/01 09:26:03;;;;;;;20.55;12.45;;;3.00;99.90;;;;;;5077860;28;20044;-76
2021/01/01 09:28:30;;;;;;;18.48;11.98;;;3.10;99.90;;;;;;5072401;28;20048;-76
2021/01/01 09:30:56;;;;;;;19.50;12.52;;;3.00;99.90;;;;;;5072387;28;20024;-78
2021/01/01 09:33:22;;;;;;;24.73;12.55;;;3.00;99.90;;;;;;5063769;28;20381;-78
2021/01/01 09:35:49;;;;;;;19.42;13.75;;;3.00;99.90;;;;;;5034272;28;20045;-76
2021/01/01 09:38:15;;;;;;;22.02;13.55;;;3.10;99.90;;;;;;5053723;28;20029;-78
2021/01/01 09:40:41;;;;;;;21.33;14.27;;;3.00;99.90;;;;;;5053439;28;20029;-77
2021/01/01 09:43:08;;;;;;;20.90;12.38;;;3.10;99.90;;;;;;5035029;28;20037;-77
2021/01/01 09:45:36;;;;;;;22.27;13.43;;;3.10;99.90;;;;;;5053213;28;20028;-78
2021/01/01 09:48:03;;;;;;;22.73;12.60;;;3.10;99.90;;;;;;5053149;28;20037;-77
2021/01/01 09:50:29;;;;;;;16.98;10.77;;;3.00;99.90;;;;;;5035756;28;20033;-77
2021/01/01 09:52:56;;;;;;;16.75;10.93;;;3.00;99.90;;;;;;5068162;28;20025;-77
2021/01/01 09:55:22;;;;;;;19.38;11.93;;;3.00;99.90;;;;;;5053132;28;20390;-77
2021/01/01 09:57:49;;;;;;;18.80;10.98;;;3.00;99.90;;;;;;5061325;28;20029;-77
2021/01/01 10:00:17;;;;;;;19.23;11.48;;;3.00;99.90;;;;;;5053083;28;20028;-77
2021/01/01 10:02:43;;;;;;;21.55;12.75;;;3.10;99.90;;;;;;5065343;28;20048;-77
2021/01/01 10:05:11;;;;;;;20.35;12.25;;;3.10;99.90;;;;;;5062812;28;20040;-77
2021/01/01 10:07:37;;;;;;;19.65;11.40;;;3.00;99.90;;;;;;5018168;28;20406;-77
2021/01/01 10:10:06;;;;;;;15.50;10.07;;;3.00;99.90;;;;;;5035287;28;20470;-77
2021/01/01 10:12:32;;;;;;;16.08;10.20;;;3.00;99.90;;;;;;5050262;28;20033;-77
2021/01/01 10:14:59;;;;;;;18.20;10.80;;;3.00;99.90;;;;;;5058371;28;20096;-77
2021/01/01 10:17:27;;;;;;;18.55;10.90;;;3.10;99.90;;;;;;5052812;28;20497;-77
2021/01/01 10:19:54;;;;;;;17.17;10.60;;;3.10;99.90;;;;;;5041862;28;20033;-77
2021/01/01 10:22:21;;;;;;;15.73;9.02;;;3.10;99.90;;;;;;5035472;28;20489;-77
2021/01/01 10:24:47;;;;;;;14.95;10.50;;;3.10;99.90;;;;;;5059539;28;20028;-77
2021/01/01 10:27:15;;;;;;;12.82;8.15;;;3.10;99.90;;;;;;5047736;28;20048;-77
2021/01/01 10:29:41;;;;;;;14.27;8.88;;;3.20;99.90;;;;;;5052136;28;20029;-77
2021/01/01 10:32:08;;;;;;;11.70;7.95;;;3.20;99.90;;;;;;5069195;28;20358;-77
2021/01/01 10:34:35;;;;;;;12.07;8.10;;;3.20;99.90;;;;;;5088067;28;20024;-79
2021/01/01 10:37:02;;;;;;;13.38;8.48;;;3.20;99.90;;;;;;5086302;28;20500;-81
2021/01/01 10:39:28;;;;;;;13.75;8.07;;;3.30;99.90;;;;;;5080591;28;20028;-80
2021/01/01 10:41:55;;;;;;;11.68;7.85;;;3.30;99.90;;;;;;5086531;28;20048;-79
2021/01/01 10:44:21;;;;;;;13.32;8.77;;;3.40;99.90;;;;;;5072015;28;20032;-80
2021/01/01 10:46:52;;;;;;;13.02;8.35;;;3.50;99.90;;;;;;5087624;28;20031;-82
2021/01/01 10:49:19;;;;;;;;;;;3.50;99.90;;;;;;5077464;28;20044;-79
2021/01/01 10:51:45;;;;;;;12.70;7.97;;;3.50;99.90;;;;;;5071834;28;20277;-78
2021/01/01 10:54:12;;;;;;;13.23;8.88;;;3.60;99.90;;;;;;5072285;28;20031;-80
2021/01/01 10:56:38;;;;;;;15.25;9.02;;;3.60;99.90;;;;;;5072927;28;20036;-79
2021/01/01 10:59:04;;;;;;;13.98;9.52;;;3.60;99.90;;;;;;5087091;28;20028;-80
2021/01/01 11:01:30;;;;;;;15.88;10.82;;;3.60;99.90;;;;;;5072776;28;20036;-80
2021/01/01 11:03:57;;;;;;;19.80;12.52;;;3.70;99.90;;;;;;5070314;28;20084;-78
2021/01/01 11:06:23;;;;;;;17.25;11.43;;;3.80;99.90;;;;;;5071891;28;20492;-78
2021/01/01 11:08:49;;;;;;;17.73;10.35;;;3.90;99.90;;;;;;5070863;28;20047;-76
2021/01/01 11:11:22;;;;;;;15.15;9.45;;;3.90;99.90;;;;;;5077881;28;20045;-77
2021/01/01 12:25:21;;;;;;;33.40;18.98;;;3.70;99.90;;;;;;5058260;28;20462;-77
2021/01/01 12:27:50;;;;;;;17.35;10.63;;;3.80;99.90;;;;;;5036216;28;20057;-77
2021/01/01 12:30:17;;;;;;;14.75;7.97;;;3.70;99.90;;;;;;5036351;28;20045;-76
2021/01/01 12:32:44;;;;;;;15.23;10.02;;;3.80;99.90;;;;;;5080075;28;20497;-77
2021/01/01 12:35:12;;;;;;;14.25;8.93;;;3.80;99.90;;;;;;5073706;28;20043;-76
2021/01/01 12:37:39;;;;;;;11.77;8.15;;;3.80;99.90;;;;;;5072757;28;20045;-79
2021/01/01 12:40:08;;;;;;;12.50;8.10;;;3.90;99.90;;;;;;5082895;28;20035;-76
2021/01/01 12:42:35;;;;;;;13.02;9.63;;;3.90;99.90;;;;;;5083062;28;20028;-76
2021/01/01 12:45:03;;;;;;;13.57;8.52;;;3.90;99.90;;;;;;5080055;28;20037;-76
2021/01/01 12:47:31;;;;;;;61.00;40.75;;;3.90;99.90;;;;;;5083521;28;20382;-81
2021/01/01 12:49:58;;;;;;;22.90;16.52;;;3.80;99.90;;;;;;5084473;28;20048;-76
2021/01/01 12:52:25;;;;;;;25.58;19.33;;;3.80;99.90;;;;;;5085798;28;20472;-75
2021/01/01 12:54:51;;;;;;;22.40;15.00;;;3.80;99.90;;;;;;5079102;28;20457;-76
2021/01/01 12:57:17;;;;;;;25.88;17.10;;;3.80;99.90;;;;;;5085216;28;20036;-76
2021/01/01 12:59:43;;;;;;;18.60;12.70;;;3.80;99.90;;;;;;5073723;28;20342;-76
2021/01/01 13:02:10;;;;;;;15.88;10.27;;;3.70;99.90;;;;;;5086372;28;20037;-76
2021/01/01 13:04:36;;;;;;;21.67;10.90;;;3.70;99.90;;;;;;5073828;28;20036;-76
2021/01/01 13:07:02;;;;;;;14.23;8.15;;;3.70;99.90;;;;;;5073700;28;20033;-77
2021/01/01 13:09:28;;;;;;;13.40;9.52;;;3.70;99.90;;;;;;5074390;28;20035;-77
2021/01/01 13:11:55;;;;;;;14.95;8.32;;;3.60;99.90;;;;;;5075342;28;20036;-80
2021/01/01 13:14:21;;;;;;;14.73;8.95;;;3.60;99.90;;;;;;5077843;28;20036;-80
2021/01/01 13:16:47;;;;;;;15.32;8.35;;;3.60;99.90;;;;;;5081055;28;20384;-84
2021/01/01 13:19:13;;;;;;;14.63;9.13;;;3.60;99.90;;;;;;5072959;28;20048;-77
2021/01/01 13:21:42;;;;;;;13.65;8.85;;;3.60;99.90;;;;;;5056405;28;20086;-80
2021/01/01 13:24:08;;;;;;;14.50;8.75;;;3.60;99.90;;;;;;5073226;28;20028;-77
2021/01/01 13:26:35;;;;;;;11.95;8.00;;;3.60;99.90;;;;;;5090249;28;20035;-76
2021/01/01 13:29:03;;;;;;;14.20;9.35;;;3.70;99.90;;;;;;5072942;28;20031;-77
2021/01/01 13:31:35;;;;;;;18.77;12.27;;;3.60;99.90;;;;;;5078448;28;20055;-76
2021/01/01 13:34:02;;;;;;;17.95;10.52;;;3.60;99.90;;;;;;5086899;28;20036;-76
2021/01/01 13:36:28;;;;;;;16.55;9.70;;;3.60;99.90;;;;;;5077208;28;20035;-76
2021/01/01 13:38:58;;;;;;;15.48;9.88;;;3.60;99.90;;;;;;5081156;28;20031;-76
2021/01/01 13:41:24;;;;;;;15.63;9.88;;;3.70;99.90;;;;;;5087729;28;20493;-77
2021/01/01 13:43:53;;;;;;;15.20;10.00;;;3.70;99.90;;;;;;5072537;28;20035;-77
2021/01/01 13:46:23;;;;;;;13.20;8.70;;;3.70;99.90;;;;;;5083177;28;20024;-77
2021/01/01 13:48:52;;;;;;;88.70;41.95;;;3.70;99.90;;;;;;5072651;28;20385;-79
2021/01/01 13:51:29;;;;;;;39.13;21.52;;;3.70;99.90;;;;;;5073196;28;20504;-78
2021/01/01 13:53:56;;;;;;;23.33;14.85;;;3.80;99.90;;;;;;5072839;28;20032;-77
2021/01/01 13:56:22;;;;;;;15.43;9.65;;;3.70;99.90;;;;;;5073065;28;20035;-78